sensor_id;sensor_type;location;lat;lon;timestamp;temperature;humidity
546;DHT22;259;53.304;9.816;2023-05-10T00:01:25;18.80;69.30
546;DHT22;259;53.304;9.816;2023-05-10T00:03:51;18.80;69.10
546;DHT22;259;53.304;9.816;2023-05-10T00:06:16;18.80;69.20
546;DHT22;259;53.304;9.816;2023-05-10T00:08:42;18.80;69.30
546;DHT22;259;53.304;9.816;2023-05-10T00:11:08;18.80;69.20
546;DHT22;259;53.304;9.816;2023-05-10T00:13:33;18.70;69.10
546;DHT22;259;53.304;9.816;2023-05-10T00:15:59;18.70;69.20
546;DHT22;259;53.304;9.816;2023-05-10T00:18:25;18.70;69.10
546;DHT22;259;53.304;9.816;2023-05-10T00:20:51;18.70;69.20
546;DHT22;259;53.304;9.816;2023-05-10T00:23:16;18.70;69.20
546;DHT22;259;53.304;9.816;2023-05-10T00:25:42;18.70;69.20
546;DHT22;259;53.304;9.816;2023-05-10T00:28:08;18.60;69.10
546;DHT22;259;53.304;9.816;2023-05-10T00:30:33;18.60;69.10
546;DHT22;259;53.304;9.816;2023-05-10T00:32:59;18.60;69.10
546;DHT22;259;53.304;9.816;2023-05-10T00:35:25;18.60;69.10
546;DHT22;259;53.304;9.816;2023-05-10T00:37:51;18.60;69.10
546;DHT22;259;53.304;9.816;2023-05-10T00:40:17;18.60;69.10
546;DHT22;259;53.304;9.816;2023-05-10T00:42:42;18.50;69.10
546;DHT22;259;53.304;9.816;2023-05-10T00:45:08;18.60;69.20
546;DHT22;259;53.304;9.816;2023-05-10T00:47:34;18.50;69.20
546;DHT22;259;53.304;9.816;2023-05-10T00:50:00;18.50;69.10
546;DHT22;259;53.304;9.816;2023-05-10T00:52:30;18.50;69.20
546;DHT22;259;53.304;9.816;2023-05-10T00:54:56;18.50;69.20
546;DHT22;259;53.304;9.816;2023-05-10T00:57:22;18.50;69.20
546;DHT22;259;53.304;9.816;2023-05-10T00:59:48;18.50;69.20
546;DHT22;259;53.304;9.816;2023-05-10T01:02:13;18.50;69.10
546;DHT22;259;53.304;9.816;2023-05-10T01:04:39;18.40;69.00
546;DHT22;259;53.304;9.816;2023-05-10T01:07:06;18.40;69.20
546;DHT22;259;53.304;9.816;2023-05-10T01:09:32;18.40;69.20
546;DHT22;259;53.304;9.816;2023-05-10T01:11:58;18.40;69.10
546;DHT22;259;53.304;9.816;2023-05-10T01:14:25;18.40;69.10
546;DHT22;259;53.304;9.816;2023-05-10T01:16:52;18.40;69.20
546;DHT22;259;53.304;9.816;2023-05-10T01:19:29;18.30;69.20
546;DHT22;259;53.304;9.816;2023-05-10T01:22:12;18.30;69.20
546;DHT22;259;53.304;9.816;2023-05-10T01:31:26;18.30;69.40
546;DHT22;259;53.304;9.816;2023-05-10T01:34:13;18.30;69.40
546;DHT22;259;53.304;9.816;2023-05-10T01:36:51;18.30;69.40
546;DHT22;259;53.304;9.816;2023-05-10T01:39:25;18.30;69.30
546;DHT22;259;53.304;9.816;2023-05-10T01:47:38;18.20;69.20
546;DHT22;259;53.304;9.816;2023-05-10T01:50:10;18.20;69.20
546;DHT22;259;53.304;9.816;2023-05-10T01:52:42;18.20;69.20
546;DHT22;259;53.304;9.816;2023-05-10T01:55:15;18.20;69.20
546;DHT22;259;53.304;9.816;2023-05-10T01:57:44;18.20;69.20
546;DHT22;259;53.304;9.816;2023-05-10T02:00:12;18.20;69.20
546;DHT22;259;53.304;9.816;2023-05-10T02:02:45;18.10;69.00
546;DHT22;259;53.304;9.816;2023-05-10T02:05:13;18.10;69.00
546;DHT22;259;53.304;9.816;2023-05-10T02:07:40;18.10;69.20
546;DHT22;259;53.304;9.816;2023-05-10T02:10:08;18.10;69.20
546;DHT22;259;53.304;9.816;2023-05-10T02:12:36;18.10;69.10
546;DHT22;259;53.304;9.816;2023-05-10T02:15:05;18.10;69.10
546;DHT22;259;53.304;9.816;2023-05-10T02:17:33;18.10;69.10
546;DHT22;259;53.304;9.816;2023-05-10T02:20:01;18.00;69.00
546;DHT22;259;53.304;9.816;2023-05-10T02:22:29;18.10;69.10
546;DHT22;259;53.304;9.816;2023-05-10T02:24:59;18.00;69.00
546;DHT22;259;53.304;9.816;2023-05-10T02:27:27;18.00;68.90
546;DHT22;259;53.304;9.816;2023-05-10T02:29:54;18.00;69.00
546;DHT22;259;53.304;9.816;2023-05-10T02:32:21;18.00;69.10
546;DHT22;259;53.304;9.816;2023-05-10T02:34:48;18.00;69.10
546;DHT22;259;53.304;9.816;2023-05-10T02:37:19;18.00;69.10
546;DHT22;259;53.304;9.816;2023-05-10T02:39:49;18.00;69.10
546;DHT22;259;53.304;9.816;2023-05-10T02:42:18;17.90;69.10
546;DHT22;259;53.304;9.816;2023-05-10T02:44:50;17.90;69.10
546;DHT22;259;53.304;9.816;2023-05-10T02:47:18;17.90;69.10
546;DHT22;259;53.304;9.816;2023-05-10T02:49:44;17.90;69.10
546;DHT22;259;53.304;9.816;2023-05-10T02:52:10;17.90;69.10
546;DHT22;259;53.304;9.816;2023-05-10T02:54:48;17.90;69.10
546;DHT22;259;53.304;9.816;2023-05-10T02:57:25;17.90;69.20
546;DHT22;259;53.304;9.816;2023-05-10T02:59:52;17.90;69.20
546;DHT22;259;53.304;9.816;2023-05-10T03:02:18;17.80;69.10
546;DHT22;259;53.304;9.816;2023-05-10T03:04:43;17.80;69.10
546;DHT22;259;53.304;9.816;2023-05-10T03:07:10;17.80;69.20
546;DHT22;259;53.304;9.816;2023-05-10T03:09:36;17.80;69.20
546;DHT22;259;53.304;9.816;2023-05-10T03:17:55;17.80;69.40
546;DHT22;259;53.304;9.816;2023-05-10T03:20:26;17.70;69.20
546;DHT22;259;53.304;9.816;2023-05-10T03:23:04;17.70;69.20
546;DHT22;259;53.304;9.816;2023-05-10T03:25:35;17.70;69.20
546;DHT22;259;53.304;9.816;2023-05-10T03:28:01;17.70;69.30
546;DHT22;259;53.304;9.816;2023-05-10T03:30:29;17.70;69.30
546;DHT22;259;53.304;9.816;2023-05-10T03:32:55;17.70;69.20
546;DHT22;259;53.304;9.816;2023-05-10T03:35:22;17.70;69.10
546;DHT22;259;53.304;9.816;2023-05-10T03:37:48;17.60;69.10
546;DHT22;259;53.304;9.816;2023-05-10T03:40:14;17.60;69.10
546;DHT22;259;53.304;9.816;2023-05-10T03:42:40;17.60;69.20
546;DHT22;259;53.304;9.816;2023-05-10T03:45:06;17.60;69.10
546;DHT22;259;53.304;9.816;2023-05-10T03:47:33;17.60;69.10
546;DHT22;259;53.304;9.816;2023-05-10T03:49:58;17.60;69.20
546;DHT22;259;53.304;9.816;2023-05-10T03:52:24;17.60;69.30
546;DHT22;259;53.304;9.816;2023-05-10T03:54:50;17.60;69.20
546;DHT22;259;53.304;9.816;2023-05-10T03:57:16;17.60;69.20
546;DHT22;259;53.304;9.816;2023-05-10T03:59:41;17.60;69.20
546;DHT22;259;53.304;9.816;2023-05-10T04:02:07;17.50;69.10
546;DHT22;259;53.304;9.816;2023-05-10T04:04:33;17.50;69.20
546;DHT22;259;53.304;9.816;2023-05-10T04:06:58;17.50;69.20
546;DHT22;259;53.304;9.816;2023-05-10T04:09:24;17.50;69.20
546;DHT22;259;53.304;9.816;2023-05-10T04:11:50;17.50;69.20
546;DHT22;259;53.304;9.816;2023-05-10T04:14:16;17.50;69.20
546;DHT22;259;53.304;9.816;2023-05-10T04:16:42;17.50;69.30
546;DHT22;259;53.304;9.816;2023-05-10T04:19:07;17.50;69.20
546;DHT22;259;53.304;9.816;2023-05-10T04:21:33;17.40;69.10
546;DHT22;259;53.304;9.816;2023-05-10T04:23:59;17.40;69.10
546;DHT22;259;53.304;9.816;2023-05-10T04:26:24;17.40;69.20
546;DHT22;259;53.304;9.816;2023-05-10T04:28:50;17.40;69.20
546;DHT22;259;53.304;9.816;2023-05-10T04:31:16;17.40;69.10
546;DHT22;259;53.304;9.816;2023-05-10T04:33:42;17.40;69.10
546;DHT22;259;53.304;9.816;2023-05-10T04:36:08;17.40;69.20
546;DHT22;259;53.304;9.816;2023-05-10T04:38:34;17.40;69.10
546;DHT22;259;53.304;9.816;2023-05-10T04:41:09;17.40;69.20
546;DHT22;259;53.304;9.816;2023-05-10T04:43:36;17.40;69.20
546;DHT22;259;53.304;9.816;2023-05-10T04:46:02;17.30;69.10
546;DHT22;259;53.304;9.816;2023-05-10T04:48:28;17.30;69.10
546;DHT22;259;53.304;9.816;2023-05-10T04:50:54;17.30;69.10
546;DHT22;259;53.304;9.816;2023-05-10T04:53:20;17.30;69.10
546;DHT22;259;53.304;9.816;2023-05-10T04:55:45;17.30;69.10
546;DHT22;259;53.304;9.816;2023-05-10T04:58:12;17.30;69.30
546;DHT22;259;53.304;9.816;2023-05-10T05:00:37;17.30;69.30
546;DHT22;259;53.304;9.816;2023-05-10T05:03:03;17.30;69.30
546;DHT22;259;53.304;9.816;2023-05-10T05:05:29;17.30;69.40
546;DHT22;259;53.304;9.816;2023-05-10T05:07:54;17.30;69.40
546;DHT22;259;53.304;9.816;2023-05-10T05:10:20;17.30;69.30
546;DHT22;259;53.304;9.816;2023-05-10T05:12:46;17.30;69.30
546;DHT22;259;53.304;9.816;2023-05-10T05:15:11;17.30;69.40
546;DHT22;259;53.304;9.816;2023-05-10T05:17:37;17.20;69.20
546;DHT22;259;53.304;9.816;2023-05-10T05:20:03;17.20;69.20
546;DHT22;259;53.304;9.816;2023-05-10T05:22:29;17.20;69.20
546;DHT22;259;53.304;9.816;2023-05-10T05:24:55;17.20;69.30
546;DHT22;259;53.304;9.816;2023-05-10T05:27:22;17.20;69.20
546;DHT22;259;53.304;9.816;2023-05-10T05:29:50;17.20;69.20
546;DHT22;259;53.304;9.816;2023-05-10T05:32:16;17.20;69.20
546;DHT22;259;53.304;9.816;2023-05-10T05:34:44;17.20;69.20
546;DHT22;259;53.304;9.816;2023-05-10T05:37:18;17.20;69.20
546;DHT22;259;53.304;9.816;2023-05-10T05:39:45;17.20;69.30
546;DHT22;259;53.304;9.816;2023-05-10T05:42:12;17.20;69.20
546;DHT22;259;53.304;9.816;2023-05-10T05:44:38;17.10;69.20
546;DHT22;259;53.304;9.816;2023-05-10T05:47:05;17.10;69.30
546;DHT22;259;53.304;9.816;2023-05-10T05:49:31;17.10;69.50
546;DHT22;259;53.304;9.816;2023-05-10T05:52:01;17.20;69.60
546;DHT22;259;53.304;9.816;2023-05-10T05:54:27;17.20;69.00
546;DHT22;259;53.304;9.816;2023-05-10T05:56:57;17.20;68.20
546;DHT22;259;53.304;9.816;2023-05-10T05:59:23;17.20;67.80
546;DHT22;259;53.304;9.816;2023-05-10T06:01:49;17.50;68.50
546;DHT22;259;53.304;9.816;2023-05-10T06:04:16;17.70;66.60
546;DHT22;259;53.304;9.816;2023-05-10T06:06:41;17.70;66.50
546;DHT22;259;53.304;9.816;2023-05-10T06:09:07;17.70;66.20
546;DHT22;259;53.304;9.816;2023-05-10T06:11:34;17.80;66.30
546;DHT22;259;53.304;9.816;2023-05-10T06:14:00;17.90;65.70
546;DHT22;259;53.304;9.816;2023-05-10T06:16:27;17.90;65.80
546;DHT22;259;53.304;9.816;2023-05-10T06:18:53;17.90;65.80
546;DHT22;259;53.304;9.816;2023-05-10T06:21:18;17.80;66.00
546;DHT22;259;53.304;9.816;2023-05-10T06:23:44;17.70;66.00
546;DHT22;259;53.304;9.816;2023-05-10T06:26:10;17.70;66.40
546;DHT22;259;53.304;9.816;2023-05-10T06:28:36;17.60;65.90
546;DHT22;259;53.304;9.816;2023-05-10T06:31:04;17.60;66.00
546;DHT22;259;53.304;9.816;2023-05-10T06:33:30;17.60;69.30
546;DHT22;259;53.304;9.816;2023-05-10T06:35:56;17.50;68.00
546;DHT22;259;53.304;9.816;2023-05-10T06:38:22;17.50;67.10
546;DHT22;259;53.304;9.816;2023-05-10T06:40:48;17.50;67.50
546;DHT22;259;53.304;9.816;2023-05-10T06:43:14;17.40;66.80
546;DHT22;259;53.304;9.816;2023-05-10T06:45:40;17.40;66.90
546;DHT22;259;53.304;9.816;2023-05-10T06:48:06;17.40;68.20
546;DHT22;259;53.304;9.816;2023-05-10T06:50:32;17.40;68.40
546;DHT22;259;53.304;9.816;2023-05-10T06:52:58;17.40;68.20
546;DHT22;259;53.304;9.816;2023-05-10T06:55:25;17.40;67.40
546;DHT22;259;53.304;9.816;2023-05-10T06:57:51;17.40;67.50
546;DHT22;259;53.304;9.816;2023-05-10T07:00:17;17.40;67.20
546;DHT22;259;53.304;9.816;2023-05-10T07:02:43;17.40;67.10
546;DHT22;259;53.304;9.816;2023-05-10T07:05:09;17.40;67.10
546;DHT22;259;53.304;9.816;2023-05-10T07:07:35;17.30;66.80
546;DHT22;259;53.304;9.816;2023-05-10T07:10:01;17.30;67.40
546;DHT22;259;53.304;9.816;2023-05-10T07:12:27;17.30;67.20
546;DHT22;259;53.304;9.816;2023-05-10T07:14:53;17.30;67.20
546;DHT22;259;53.304;9.816;2023-05-10T07:17:19;17.30;67.60
546;DHT22;259;53.304;9.816;2023-05-10T07:19:45;17.30;67.80
546;DHT22;259;53.304;9.816;2023-05-10T07:22:10;17.30;68.00
546;DHT22;259;53.304;9.816;2023-05-10T07:24:37;17.40;68.40
546;DHT22;259;53.304;9.816;2023-05-10T07:27:03;17.40;69.10
546;DHT22;259;53.304;9.816;2023-05-10T07:29:29;17.40;68.70
546;DHT22;259;53.304;9.816;2023-05-10T07:31:55;17.40;69.10
546;DHT22;259;53.304;9.816;2023-05-10T07:34:21;17.50;69.40
546;DHT22;259;53.304;9.816;2023-05-10T07:36:47;17.50;69.50
546;DHT22;259;53.304;9.816;2023-05-10T07:39:12;17.60;69.90
546;DHT22;259;53.304;9.816;2023-05-10T07:41:38;17.60;70.70
546;DHT22;259;53.304;9.816;2023-05-10T07:44:05;17.80;70.80
546;DHT22;259;53.304;9.816;2023-05-10T07:46:31;17.90;70.90
546;DHT22;259;53.304;9.816;2023-05-10T07:48:57;18.10;70.20
546;DHT22;259;53.304;9.816;2023-05-10T07:51:22;18.10;69.90
546;DHT22;259;53.304;9.816;2023-05-10T07:53:48;18.10;70.20
546;DHT22;259;53.304;9.816;2023-05-10T07:56:25;18.10;70.50
546;DHT22;259;53.304;9.816;2023-05-10T07:58:55;18.20;71.40
546;DHT22;259;53.304;9.816;2023-05-10T08:01:21;18.10;71.00
546;DHT22;259;53.304;9.816;2023-05-10T08:03:48;18.30;71.30
546;DHT22;259;53.304;9.816;2023-05-10T08:06:18;18.30;70.90
546;DHT22;259;53.304;9.816;2023-05-10T08:08:45;18.30;70.20
546;DHT22;259;53.304;9.816;2023-05-10T08:11:15;18.20;70.30
546;DHT22;259;53.304;9.816;2023-05-10T08:13:41;18.10;71.10
546;DHT22;259;53.304;9.816;2023-05-10T08:16:07;18.10;71.50
546;DHT22;259;53.304;9.816;2023-05-10T08:18:33;18.20;71.30
546;DHT22;259;53.304;9.816;2023-05-10T08:20:58;18.30;71.40
546;DHT22;259;53.304;9.816;2023-05-10T08:23:24;18.40;71.10
546;DHT22;259;53.304;9.816;2023-05-10T08:25:50;18.40;70.60
546;DHT22;259;53.304;9.816;2023-05-10T08:28:15;18.50;70.60
546;DHT22;259;53.304;9.816;2023-05-10T08:30:41;18.50;70.80
546;DHT22;259;53.304;9.816;2023-05-10T08:33:07;18.60;70.10
546;DHT22;259;53.304;9.816;2023-05-10T08:35:33;18.70;70.00
546;DHT22;259;53.304;9.816;2023-05-10T08:38:00;18.90;69.50
546;DHT22;259;53.304;9.816;2023-05-10T08:40:26;18.90;69.80
546;DHT22;259;53.304;9.816;2023-05-10T08:43:00;18.90;69.80
546;DHT22;259;53.304;9.816;2023-05-10T08:45:35;18.90;70.40
546;DHT22;259;53.304;9.816;2023-05-10T08:48:05;18.90;70.50
546;DHT22;259;53.304;9.816;2023-05-10T08:50:34;19.00;70.20
546;DHT22;259;53.304;9.816;2023-05-10T08:53:05;18.90;70.70
546;DHT22;259;53.304;9.816;2023-05-10T08:55:35;19.00;70.90
546;DHT22;259;53.304;9.816;2023-05-10T08:58:04;19.00;70.70
546;DHT22;259;53.304;9.816;2023-05-10T09:00:30;19.10;71.30
546;DHT22;259;53.304;9.816;2023-05-10T09:02:58;19.00;71.10
546;DHT22;259;53.304;9.816;2023-05-10T09:05:24;19.00;71.60
546;DHT22;259;53.304;9.816;2023-05-10T09:07:50;19.00;71.20
546;DHT22;259;53.304;9.816;2023-05-10T09:10:16;19.20;70.40
546;DHT22;259;53.304;9.816;2023-05-10T09:12:44;19.10;70.30
546;DHT22;259;53.304;9.816;2023-05-10T09:15:10;19.00;71.00
546;DHT22;259;53.304;9.816;2023-05-10T09:17:38;18.90;71.40
546;DHT22;259;53.304;9.816;2023-05-10T09:20:04;18.80;71.60
546;DHT22;259;53.304;9.816;2023-05-10T09:22:31;18.80;71.50
546;DHT22;259;53.304;9.816;2023-05-10T09:25:07;18.80;71.60
546;DHT22;259;53.304;9.816;2023-05-10T09:27:34;18.80;71.40
546;DHT22;259;53.304;9.816;2023-05-10T09:30:01;18.80;71.50
546;DHT22;259;53.304;9.816;2023-05-10T09:32:57;18.70;71.30
546;DHT22;259;53.304;9.816;2023-05-10T09:35:25;18.70;71.30
546;DHT22;259;53.304;9.816;2023-05-10T09:37:57;18.60;71.20
546;DHT22;259;53.304;9.816;2023-05-10T09:40:28;18.60;71.40
546;DHT22;259;53.304;9.816;2023-05-10T09:45:26;18.40;71.50
546;DHT22;259;53.304;9.816;2023-05-10T09:48:01;18.40;71.80
546;DHT22;259;53.304;9.816;2023-05-10T09:50:28;18.40;72.00
546;DHT22;259;53.304;9.816;2023-05-10T09:52:58;18.30;72.00
546;DHT22;259;53.304;9.816;2023-05-10T09:55:37;18.30;72.00
546;DHT22;259;53.304;9.816;2023-05-10T09:58:03;18.30;72.10
546;DHT22;259;53.304;9.816;2023-05-10T10:00:36;18.30;72.90
546;DHT22;259;53.304;9.816;2023-05-10T10:03:04;18.40;72.40
546;DHT22;259;53.304;9.816;2023-05-10T10:05:30;18.40;73.10
546;DHT22;259;53.304;9.816;2023-05-10T10:08:03;18.30;73.00
546;DHT22;259;53.304;9.816;2023-05-10T10:10:31;18.30;73.20
546;DHT22;259;53.304;9.816;2023-05-10T10:12:57;18.20;73.60
546;DHT22;259;53.304;9.816;2023-05-10T10:15:24;18.10;73.60
546;DHT22;259;53.304;9.816;2023-05-10T10:17:51;18.10;73.80
546;DHT22;259;53.304;9.816;2023-05-10T10:20:19;18.00;73.80
546;DHT22;259;53.304;9.816;2023-05-10T10:22:46;18.00;73.80
546;DHT22;259;53.304;9.816;2023-05-10T10:25:15;18.00;74.40
546;DHT22;259;53.304;9.816;2023-05-10T10:30:47;18.10;74.30
546;DHT22;259;53.304;9.816;2023-05-10T10:36:04;18.00;75.50
546;DHT22;259;53.304;9.816;2023-05-10T10:38:58;18.00;75.90
546;DHT22;259;53.304;9.816;2023-05-10T10:41:39;18.00;76.40
546;DHT22;259;53.304;9.816;2023-05-10T10:52:28;18.10;76.60
546;DHT22;259;53.304;9.816;2023-05-10T10:55:12;18.10;77.30
546;DHT22;259;53.304;9.816;2023-05-10T10:57:51;18.00;77.40
546;DHT22;259;53.304;9.816;2023-05-10T11:03:09;17.90;78.60
546;DHT22;259;53.304;9.816;2023-05-10T11:05:48;17.90;78.80
546;DHT22;259;53.304;9.816;2023-05-10T11:08:21;17.90;79.10
546;DHT22;259;53.304;9.816;2023-05-10T11:10:52;17.90;79.60
546;DHT22;259;53.304;9.816;2023-05-10T11:13:27;17.90;80.30
546;DHT22;259;53.304;9.816;2023-05-10T11:15:54;17.90;80.10
546;DHT22;259;53.304;9.816;2023-05-10T11:18:23;17.90;80.40
546;DHT22;259;53.304;9.816;2023-05-10T11:20:51;17.90;80.90
546;DHT22;259;53.304;9.816;2023-05-10T11:23:22;18.00;83.10
546;DHT22;259;53.304;9.816;2023-05-10T11:25:48;18.00;86.90
546;DHT22;259;53.304;9.816;2023-05-10T11:28:17;18.00;86.30
546;DHT22;259;53.304;9.816;2023-05-10T11:30:44;18.10;85.60
546;DHT22;259;53.304;9.816;2023-05-10T11:33:18;18.10;86.00
546;DHT22;259;53.304;9.816;2023-05-10T11:35:45;18.10;86.20
546;DHT22;259;53.304;9.816;2023-05-10T11:38:12;18.20;86.70
546;DHT22;259;53.304;9.816;2023-05-10T11:40:40;18.20;88.20
546;DHT22;259;53.304;9.816;2023-05-10T11:43:05;18.20;88.10
546;DHT22;259;53.304;9.816;2023-05-10T11:45:35;18.20;87.50
546;DHT22;259;53.304;9.816;2023-05-10T11:48:02;18.20;87.60
546;DHT22;259;53.304;9.816;2023-05-10T11:50:28;18.20;87.10
546;DHT22;259;53.304;9.816;2023-05-10T11:52:55;18.30;87.10
546;DHT22;259;53.304;9.816;2023-05-10T11:55:22;18.30;87.20
546;DHT22;259;53.304;9.816;2023-05-10T11:57:59;18.30;87.60
546;DHT22;259;53.304;9.816;2023-05-10T12:00:25;18.30;87.80
546;DHT22;259;53.304;9.816;2023-05-10T12:02:51;18.30;87.60
546;DHT22;259;53.304;9.816;2023-05-10T12:05:17;18.30;87.60
546;DHT22;259;53.304;9.816;2023-05-10T12:07:43;18.40;88.00
546;DHT22;259;53.304;9.816;2023-05-10T12:10:13;18.40;87.90
546;DHT22;259;53.304;9.816;2023-05-10T12:12:46;18.40;87.60
546;DHT22;259;53.304;9.816;2023-05-10T12:15:24;18.40;87.00
546;DHT22;259;53.304;9.816;2023-05-10T12:17:51;18.40;86.20
546;DHT22;259;53.304;9.816;2023-05-10T12:20:17;18.30;85.00
546;DHT22;259;53.304;9.816;2023-05-10T12:22:50;18.30;83.70
546;DHT22;259;53.304;9.816;2023-05-10T12:25:18;18.30;83.40
546;DHT22;259;53.304;9.816;2023-05-10T12:27:55;18.30;83.60
546;DHT22;259;53.304;9.816;2023-05-10T12:30:26;18.30;83.80
546;DHT22;259;53.304;9.816;2023-05-10T12:32:53;18.20;84.90
546;DHT22;259;53.304;9.816;2023-05-10T12:35:20;18.20;85.30
546;DHT22;259;53.304;9.816;2023-05-10T12:37:47;18.20;85.20
546;DHT22;259;53.304;9.816;2023-05-10T12:40:14;18.20;85.20
546;DHT22;259;53.304;9.816;2023-05-10T12:42:40;18.20;86.10
546;DHT22;259;53.304;9.816;2023-05-10T12:45:06;18.40;86.60
546;DHT22;259;53.304;9.816;2023-05-10T12:47:33;18.40;86.60
546;DHT22;259;53.304;9.816;2023-05-10T12:50:00;18.30;86.30
546;DHT22;259;53.304;9.816;2023-05-10T12:52:27;18.30;86.40
546;DHT22;259;53.304;9.816;2023-05-10T12:54:53;18.30;87.20
546;DHT22;259;53.304;9.816;2023-05-10T12:57:20;18.30;88.40
546;DHT22;259;53.304;9.816;2023-05-10T12:59:46;18.30;88.90
546;DHT22;259;53.304;9.816;2023-05-10T13:02:11;18.30;90.00
546;DHT22;259;53.304;9.816;2023-05-10T13:04:38;18.30;89.80
546;DHT22;259;53.304;9.816;2023-05-10T13:07:06;18.30;89.80
546;DHT22;259;53.304;9.816;2023-05-10T13:09:32;18.30;90.30
546;DHT22;259;53.304;9.816;2023-05-10T13:11:57;18.30;90.30
546;DHT22;259;53.304;9.816;2023-05-10T13:14:24;18.30;90.60
546;DHT22;259;53.304;9.816;2023-05-10T13:16:50;18.30;90.90
546;DHT22;259;53.304;9.816;2023-05-10T13:19:16;18.30;91.40
546;DHT22;259;53.304;9.816;2023-05-10T13:21:42;18.30;91.40
546;DHT22;259;53.304;9.816;2023-05-10T13:24:09;18.30;90.90
546;DHT22;259;53.304;9.816;2023-05-10T13:26:36;18.30;91.40
546;DHT22;259;53.304;9.816;2023-05-10T13:29:03;18.30;92.20
546;DHT22;259;53.304;9.816;2023-05-10T13:31:28;18.30;92.90
546;DHT22;259;53.304;9.816;2023-05-10T13:33:55;18.30;93.30
546;DHT22;259;53.304;9.816;2023-05-10T13:36:20;18.40;93.90
546;DHT22;259;53.304;9.816;2023-05-10T13:38:46;18.40;94.40
546;DHT22;259;53.304;9.816;2023-05-10T13:41:12;18.40;94.60
546;DHT22;259;53.304;9.816;2023-05-10T13:43:37;18.40;94.60
546;DHT22;259;53.304;9.816;2023-05-10T13:46:03;18.40;95.10
546;DHT22;259;53.304;9.816;2023-05-10T13:48:29;18.40;95.40
546;DHT22;259;53.304;9.816;2023-05-10T13:50:54;18.40;95.50
546;DHT22;259;53.304;9.816;2023-05-10T13:53:20;18.40;95.80
546;DHT22;259;53.304;9.816;2023-05-10T13:55:46;18.40;95.60
546;DHT22;259;53.304;9.816;2023-05-10T13:58:12;18.40;95.60
546;DHT22;259;53.304;9.816;2023-05-10T14:00:38;18.40;95.30
546;DHT22;259;53.304;9.816;2023-05-10T14:03:03;18.50;95.00
546;DHT22;259;53.304;9.816;2023-05-10T14:05:30;18.50;94.80
546;DHT22;259;53.304;9.816;2023-05-10T14:07:56;18.50;94.40
546;DHT22;259;53.304;9.816;2023-05-10T14:10:22;18.50;94.40
546;DHT22;259;53.304;9.816;2023-05-10T14:12:48;18.50;94.20
546;DHT22;259;53.304;9.816;2023-05-10T14:15:14;18.50;94.10
546;DHT22;259;53.304;9.816;2023-05-10T14:17:40;18.50;93.80
546;DHT22;259;53.304;9.816;2023-05-10T14:20:06;18.60;93.70
546;DHT22;259;53.304;9.816;2023-05-10T14:22:32;18.50;93.70
546;DHT22;259;53.304;9.816;2023-05-10T14:24:58;18.50;93.50
546;DHT22;259;53.304;9.816;2023-05-10T14:27:24;18.50;93.60
546;DHT22;259;53.304;9.816;2023-05-10T14:29:50;18.50;93.50
546;DHT22;259;53.304;9.816;2023-05-10T14:32:16;18.50;93.20
546;DHT22;259;53.304;9.816;2023-05-10T14:34:41;18.50;93.30
546;DHT22;259;53.304;9.816;2023-05-10T14:37:09;18.50;93.20
546;DHT22;259;53.304;9.816;2023-05-10T14:39:35;18.50;93.00
546;DHT22;259;53.304;9.816;2023-05-10T14:42:01;18.60;93.10
546;DHT22;259;53.304;9.816;2023-05-10T14:44:27;18.60;92.90
546;DHT22;259;53.304;9.816;2023-05-10T14:46:53;18.60;92.80
546;DHT22;259;53.304;9.816;2023-05-10T14:49:19;18.50;92.80
546;DHT22;259;53.304;9.816;2023-05-10T14:51:48;18.60;92.90
546;DHT22;259;53.304;9.816;2023-05-10T14:54:14;18.60;92.80
546;DHT22;259;53.304;9.816;2023-05-10T14:56:39;18.60;92.70
546;DHT22;259;53.304;9.816;2023-05-10T14:59:07;18.60;92.60
546;DHT22;259;53.304;9.816;2023-05-10T15:01:33;18.60;92.60
546;DHT22;259;53.304;9.816;2023-05-10T15:04:03;18.60;92.40
546;DHT22;259;53.304;9.816;2023-05-10T15:06:33;18.70;92.50
546;DHT22;259;53.304;9.816;2023-05-10T15:09:01;18.70;92.50
546;DHT22;259;53.304;9.816;2023-05-10T15:11:28;18.70;92.40
546;DHT22;259;53.304;9.816;2023-05-10T15:13:54;18.70;92.40
546;DHT22;259;53.304;9.816;2023-05-10T15:16:20;18.80;92.60
546;DHT22;259;53.304;9.816;2023-05-10T15:18:46;18.80;92.60
546;DHT22;259;53.304;9.816;2023-05-10T15:21:12;18.80;92.40
546;DHT22;259;53.304;9.816;2023-05-10T15:23:37;18.80;92.30
546;DHT22;259;53.304;9.816;2023-05-10T15:26:03;18.80;92.40
546;DHT22;259;53.304;9.816;2023-05-10T15:28:29;18.80;92.40
546;DHT22;259;53.304;9.816;2023-05-10T15:30:55;18.80;92.30
546;DHT22;259;53.304;9.816;2023-05-10T15:33:21;18.80;92.30
546;DHT22;259;53.304;9.816;2023-05-10T15:35:48;18.90;92.30
546;DHT22;259;53.304;9.816;2023-05-10T15:38:13;18.90;92.30
546;DHT22;259;53.304;9.816;2023-05-10T15:40:40;18.90;92.20
546;DHT22;259;53.304;9.816;2023-05-10T15:43:05;18.90;92.30
546;DHT22;259;53.304;9.816;2023-05-10T15:45:31;18.90;92.10
546;DHT22;259;53.304;9.816;2023-05-10T15:47:58;18.90;91.90
546;DHT22;259;53.304;9.816;2023-05-10T15:50:24;18.90;91.70
546;DHT22;259;53.304;9.816;2023-05-10T15:52:50;18.80;91.50
546;DHT22;259;53.304;9.816;2023-05-10T15:55:16;18.80;91.20
546;DHT22;259;53.304;9.816;2023-05-10T15:57:43;18.80;91.10
546;DHT22;259;53.304;9.816;2023-05-10T16:00:10;18.80;91.00
546;DHT22;259;53.304;9.816;2023-05-10T16:02:36;18.80;90.90
546;DHT22;259;53.304;9.816;2023-05-10T16:05:03;18.70;90.70
546;DHT22;259;53.304;9.816;2023-05-10T16:07:29;18.70;90.60
546;DHT22;259;53.304;9.816;2023-05-10T16:09:54;18.70;90.50
546;DHT22;259;53.304;9.816;2023-05-10T16:12:20;18.70;90.50
546;DHT22;259;53.304;9.816;2023-05-10T16:14:47;18.60;90.40
546;DHT22;259;53.304;9.816;2023-05-10T16:17:13;18.60;90.30
546;DHT22;259;53.304;9.816;2023-05-10T16:19:41;18.60;90.20
546;DHT22;259;53.304;9.816;2023-05-10T16:22:07;18.60;90.20
546;DHT22;259;53.304;9.816;2023-05-10T16:24:33;18.60;90.50
546;DHT22;259;53.304;9.816;2023-05-10T16:26:58;18.60;90.40
546;DHT22;259;53.304;9.816;2023-05-10T16:29:24;18.60;90.00
546;DHT22;259;53.304;9.816;2023-05-10T16:31:50;18.50;89.90
546;DHT22;259;53.304;9.816;2023-05-10T16:34:16;18.50;89.80
546;DHT22;259;53.304;9.816;2023-05-10T16:36:41;18.50;89.60
546;DHT22;259;53.304;9.816;2023-05-10T16:39:07;18.50;89.60
546;DHT22;259;53.304;9.816;2023-05-10T16:41:34;18.50;89.40
546;DHT22;259;53.304;9.816;2023-05-10T16:44:00;18.40;89.30
546;DHT22;259;53.304;9.816;2023-05-10T16:46:26;18.40;89.20
546;DHT22;259;53.304;9.816;2023-05-10T16:48:52;18.40;89.10
546;DHT22;259;53.304;9.816;2023-05-10T16:51:18;18.40;89.30
546;DHT22;259;53.304;9.816;2023-05-10T16:53:43;18.40;90.00
546;DHT22;259;53.304;9.816;2023-05-10T16:56:09;18.40;89.40
546;DHT22;259;53.304;9.816;2023-05-10T16:58:35;18.40;89.40
546;DHT22;259;53.304;9.816;2023-05-10T17:01:01;18.40;89.30
546;DHT22;259;53.304;9.816;2023-05-10T17:03:27;18.40;89.40
546;DHT22;259;53.304;9.816;2023-05-10T17:05:52;18.30;89.10
546;DHT22;259;53.304;9.816;2023-05-10T17:08:18;18.30;89.00
546;DHT22;259;53.304;9.816;2023-05-10T17:10:44;18.30;88.90
546;DHT22;259;53.304;9.816;2023-05-10T17:13:09;18.30;88.80